createdAt,value
2022-08-26T00:02:13.799Z,16.42
2022-08-26T00:04:46.493Z,19.00
2022-08-26T00:07:17.715Z,21.63
2022-08-26T00:09:50.021Z,23.58
2022-08-26T00:12:21.671Z,20.65
2022-08-26T00:14:59.822Z,17.77
2022-08-26T00:17:30.116Z,18.73
2022-08-26T00:20:01.110Z,22.27
2022-08-26T00:22:29.412Z,19.67
2022-08-26T00:25:00.377Z,21.42
2022-08-26T00:27:34.064Z,19.23
2022-08-26T00:30:06.806Z,20.13
2022-08-26T00:32:39.639Z,19.08
2022-08-26T00:35:13.351Z,24.77
2022-08-26T00:37:48.206Z,18.27
2022-08-26T00:40:22.753Z,16.77
2022-08-26T00:45:25.530Z,17.40
2022-08-26T00:47:59.006Z,17.92
2022-08-26T00:50:31.134Z,18.23
2022-08-26T00:53:05.072Z,23.25
2022-08-26T00:55:39.902Z,21.30
2022-08-26T00:58:11.905Z,21.95
2022-08-26T01:00:40.266Z,26.67
2022-08-26T01:03:12.738Z,25.13
2022-08-26T01:05:44.344Z,20.00
2022-08-26T01:08:12.882Z,20.98
2022-08-26T01:10:41.845Z,16.70
2022-08-26T01:13:14.316Z,23.88
2022-08-26T01:15:46.582Z,18.63
2022-08-26T01:18:19.668Z,16.95
2022-08-26T01:21:00.444Z,16.08
2022-08-26T01:23:37.230Z,13.30
2022-08-26T01:26:19.478Z,17.45
2022-08-26T01:28:52.363Z,19.23
2022-08-26T01:31:29.748Z,17.70
2022-08-26T01:34:11.255Z,15.10
2022-08-26T01:36:40.782Z,15.20
2022-08-26T01:39:11.802Z,17.52
2022-08-26T01:41:44.057Z,17.80
2022-08-26T01:44:18.833Z,20.25
2022-08-26T01:46:51.652Z,22.02
2022-08-26T01:49:22.495Z,19.73
2022-08-26T01:51:55.071Z,17.10
2022-08-26T01:54:25.996Z,22.00
2022-08-26T01:56:58.845Z,18.13
2022-08-26T01:59:30.984Z,19.42
2022-08-26T02:01:59.752Z,19.70
2022-08-26T02:04:32.583Z,18.60
2022-08-26T02:07:06.022Z,16.00
2022-08-26T02:09:43.725Z,19.95
2022-08-26T02:12:17.432Z,16.00
2022-08-26T02:14:51.298Z,16.48
2022-08-26T02:17:22.094Z,12.32
2022-08-26T02:19:51.353Z,22.98
2022-08-26T02:22:21.971Z,18.67
2022-08-26T02:24:56.805Z,20.35
2022-08-26T02:30:10.717Z,22.08
2022-08-26T02:32:40.233Z,16.65
2022-08-26T02:35:11.463Z,17.05
2022-08-26T02:37:41.828Z,16.17
2022-08-26T02:40:14.601Z,18.20
2022-08-26T02:42:43.230Z,17.95
2022-08-26T02:45:13.034Z,14.07
2022-08-26T02:47:45.231Z,18.55
2022-08-26T02:50:15.625Z,15.35
2022-08-26T02:52:48.567Z,17.48
2022-08-26T02:55:18.804Z,14.23
2022-08-26T02:57:50.220Z,12.25
2022-08-26T03:00:20.448Z,16.85
2022-08-26T03:02:54.683Z,16.65
2022-08-26T03:05:26.188Z,18.15
2022-08-26T03:07:54.605Z,14.70
2022-08-26T03:10:26.051Z,14.90
2022-08-26T03:12:54.484Z,21.88
2022-08-26T03:15:25.762Z,15.20
2022-08-26T03:17:57.188Z,18.50
2022-08-26T03:20:26.053Z,16.65
2022-08-26T03:22:57.188Z,15.40
2022-08-26T03:25:30.148Z,16.55
2022-08-26T03:28:01.211Z,15.65
2022-08-26T03:30:45.083Z,17.88
2022-08-26T03:33:15.453Z,15.48
2022-08-26T03:35:45.863Z,22.27
2022-08-26T03:38:16.933Z,20.30
2022-08-26T03:40:48.639Z,20.88
2022-08-26T03:43:22.592Z,15.15
2022-08-26T03:45:54.445Z,15.73
2022-08-26T03:48:23.592Z,16.90
2022-08-26T03:50:54.603Z,19.40
2022-08-26T03:53:27.043Z,17.38
2022-08-26T03:56:02.743Z,16.02
2022-08-26T03:58:32.291Z,21.15
2022-08-26T04:01:03.926Z,17.35
2022-08-26T04:03:50.141Z,18.20
2022-08-26T04:06:18.884Z,15.68
2022-08-26T04:08:48.603Z,18.60
2022-08-26T04:11:25.824Z,24.95
2022-08-26T04:13:57.646Z,17.75
2022-08-26T04:16:30.075Z,21.33
2022-08-26T04:19:01.764Z,16.55
2022-08-26T04:21:32.812Z,22.63
2022-08-26T04:24:03.566Z,16.00
2022-08-26T04:26:42.792Z,19.55
2022-08-26T04:29:18.230Z,17.67
2022-08-26T04:31:49.329Z,21.88
2022-08-26T04:34:21.105Z,16.75
2022-08-26T04:36:53.094Z,20.25
2022-08-26T04:39:21.737Z,16.45
2022-08-26T04:41:58.398Z,14.43
2022-08-26T04:44:31.600Z,22.20
2022-08-26T04:46:59.862Z,18.73
2022-08-26T04:49:35.454Z,18.27
2022-08-26T04:52:07.051Z,20.05
2022-08-26T04:54:36.193Z,20.85
2022-08-26T04:57:06.475Z,25.77
2022-08-26T04:59:38.966Z,17.15
2022-08-26T05:02:10.862Z,18.27
2022-08-26T05:04:43.810Z,19.67
2022-08-26T05:07:12.412Z,19.40
2022-08-26T05:09:41.825Z,16.35
2022-08-26T05:12:11.567Z,14.88
2022-08-26T05:14:41.598Z,13.50
2022-08-26T05:17:15.293Z,19.67
2022-08-26T05:19:46.522Z,18.67
2022-08-26T05:22:15.026Z,22.88
2022-08-26T05:24:43.407Z,20.70
2022-08-26T05:27:13.218Z,28.73
2022-08-26T05:29:41.701Z,15.88
2022-08-26T05:32:11.277Z,18.02
2022-08-26T05:34:39.705Z,22.90
2022-08-26T05:37:11.289Z,27.23
2022-08-26T05:39:51.047Z,23.35
2022-08-26T05:42:21.626Z,20.20
2022-08-26T05:44:56.777Z,23.98
2022-08-26T05:47:27.905Z,23.55
2022-08-26T05:49:56.229Z,21.63
2022-08-26T05:52:27.403Z,20.15
2022-08-26T05:54:59.329Z,26.60
2022-08-26T05:57:32.395Z,23.98
2022-08-26T06:00:00.864Z,21.80
2022-08-26T06:02:29.368Z,20.23
2022-08-26T06:05:00.694Z,26.15
2022-08-26T06:07:43.239Z,16.30
2022-08-26T06:10:32.538Z,16.50
2022-08-26T06:13:11.571Z,20.88
2022-08-26T06:15:45.852Z,23.08
2022-08-26T06:18:15.873Z,18.40
2022-08-26T06:20:57.195Z,18.67
2022-08-26T06:23:56.582Z,18.90
2022-08-26T06:26:27.865Z,14.75
2022-08-26T06:28:57.571Z,19.10
2022-08-26T06:31:26.193Z,19.60
2022-08-26T06:33:59.069Z,19.05
2022-08-26T06:36:35.199Z,15.20
2022-08-26T06:39:09.566Z,16.40
2022-08-26T06:41:43.452Z,16.98
2022-08-26T06:44:16.955Z,18.98
2022-08-26T06:46:50.498Z,16.38
2022-08-26T06:49:27.019Z,17.45
2022-08-26T06:51:58.588Z,21.30
2022-08-26T06:54:27.462Z,20.88
2022-08-26T06:56:58.771Z,17.15
2022-08-26T06:59:28.606Z,16.02
2022-08-26T07:01:57.703Z,17.88
2022-08-26T07:04:29.838Z,16.80
2022-08-26T07:06:58.375Z,17.40
2022-08-26T07:09:33.237Z,22.25
2022-08-26T07:12:01.995Z,13.10
2022-08-26T07:14:35.765Z,13.82
2022-08-26T07:17:04.122Z,12.07
2022-08-26T07:19:35.027Z,16.05
2022-08-26T07:22:05.809Z,19.52
2022-08-26T07:24:35.732Z,17.75
2022-08-26T07:27:05.919Z,18.27
2022-08-26T07:29:39.234Z,15.23
2022-08-26T07:32:08.174Z,10.45
2022-08-26T07:34:38.303Z,14.93
2022-08-26T07:37:09.867Z,15.00
2022-08-26T07:39:41.824Z,10.68
2022-08-26T07:42:15.707Z,14.80
2022-08-26T07:44:48.591Z,9.90
2022-08-26T07:47:24.923Z,13.98
2022-08-26T07:49:55.920Z,12.75
2022-08-26T07:52:27.030Z,13.77
2022-08-26T07:54:56.831Z,9.75
2022-08-26T07:57:29.576Z,14.52
2022-08-26T08:00:01.454Z,17.92
2022-08-26T08:02:30.467Z,9.20
2022-08-26T08:05:02.275Z,13.77
2022-08-26T08:07:44.620Z,14.70
2022-08-26T08:10:25.908Z,12.75
2022-08-26T08:12:55.284Z,7.82
2022-08-26T08:15:29.999Z,12.13
2022-08-26T08:18:00.656Z,7.53
2022-08-26T08:20:30.079Z,10.77
2022-08-26T08:22:58.883Z,9.32
2022-08-26T08:25:29.316Z,11.15
2022-08-26T08:27:57.644Z,13.45
2022-08-26T08:30:27.768Z,14.85
2022-08-26T08:32:56.679Z,28.25
2022-08-26T08:35:29.184Z,15.65
2022-08-26T08:37:58.267Z,10.82
2022-08-26T08:40:29.632Z,11.18
2022-08-26T08:43:07.150Z,11.27
2022-08-26T08:45:44.038Z,9.25
2022-08-26T08:48:27.328Z,16.10
2022-08-26T08:51:05.975Z,10.85
2022-08-26T08:53:37.754Z,11.88
2022-08-26T08:56:13.899Z,10.43
2022-08-26T08:58:53.561Z,7.85
2022-08-26T09:01:43.518Z,10.98
2022-08-26T09:04:34.115Z,17.65
2022-08-26T09:07:08.396Z,6.55
2022-08-26T09:09:47.614Z,7.55
2022-08-26T09:12:20.621Z,11.52
2022-08-26T09:15:02.903Z,12.32
2022-08-26T09:17:44.944Z,11.98
2022-08-26T09:20:22.130Z,11.65
2022-08-26T09:22:51.558Z,12.68
2022-08-26T09:25:19.797Z,7.43
2022-08-26T09:27:51.123Z,11.05
2022-08-26T09:30:30.498Z,13.60
2022-08-26T09:33:10.176Z,11.98
2022-08-26T09:35:40.796Z,7.43
2022-08-26T09:38:27.979Z,11.45
2022-08-26T09:40:59.391Z,11.65
2022-08-26T09:43:29.382Z,9.48
2022-08-26T09:46:15.914Z,7.95
2022-08-26T09:48:45.755Z,11.05
2022-08-26T09:51:30.237Z,9.57
2022-08-26T09:54:01.199Z,16.52
2022-08-26T09:56:34.806Z,12.05
2022-08-26T09:59:06.563Z,9.48
2022-08-26T10:01:43.072Z,8.55
2022-08-26T10:04:16.019Z,10.30
2022-08-26T10:06:57.036Z,9.68
2022-08-26T10:09:31.085Z,9.70
2022-08-26T10:12:03.560Z,8.17
2022-08-26T10:14:35.656Z,8.65
2022-08-26T10:17:10.599Z,7.88
2022-08-26T10:19:56.765Z,10.07
2022-08-26T10:22:32.949Z,9.10
2022-08-26T10:25:09.470Z,9.95
2022-08-26T10:27:52.801Z,10.00
2022-08-26T10:30:29.619Z,11.70
2022-08-26T10:33:03.436Z,14.57
2022-08-26T10:35:35.670Z,11.43
2022-08-26T10:38:10.379Z,13.07
2022-08-26T10:40:49.683Z,7.93
2022-08-26T10:43:23.687Z,10.32
2022-08-26T10:45:58.414Z,12.95
2022-08-26T10:48:40.053Z,9.85
2022-08-26T10:51:16.442Z,13.52
2022-08-26T10:53:56.002Z,10.38
2022-08-26T10:56:39.308Z,9.80
2022-08-26T10:59:14.654Z,8.45
2022-08-26T11:01:51.103Z,9.57
2022-08-26T11:04:44.491Z,10.73
2022-08-26T11:07:41.988Z,10.63
2022-08-26T11:10:15.606Z,8.27
2022-08-26T11:13:01.768Z,10.25
2022-08-26T11:16:01.226Z,11.30
2022-08-26T11:18:47.182Z,7.70
2022-08-26T11:21:53.061Z,8.98
2022-08-26T11:24:48.455Z,7.50
2022-08-26T11:27:59.759Z,9.95
2022-08-26T11:30:56.880Z,9.27
2022-08-26T11:33:59.950Z,12.88
2022-08-26T11:36:39.428Z,10.10
2022-08-26T11:39:19.000Z,7.10
2022-08-26T11:41:53.889Z,6.93
2022-08-26T11:44:24.393Z,11.95
2022-08-26T11:46:58.059Z,7.40
2022-08-26T11:49:27.102Z,7.65
2022-08-26T11:52:13.243Z,7.88
2022-08-26T11:54:41.543Z,9.32
2022-08-26T11:57:14.773Z,6.22
2022-08-26T11:59:43.607Z,7.90
2022-08-26T12:02:20.329Z,10.13
2022-08-26T12:04:54.324Z,8.75
2022-08-26T12:07:27.187Z,10.77
2022-08-26T12:09:58.447Z,6.72
2022-08-26T12:12:35.244Z,9.25
2022-08-26T12:15:19.856Z,12.13
2022-08-26T12:17:54.431Z,11.23
2022-08-26T12:20:46.122Z,7.38
2022-08-26T12:23:31.518Z,10.13
2022-08-26T12:26:08.590Z,12.70
2022-08-26T12:28:46.424Z,9.15
2022-08-26T12:31:23.537Z,7.80
2022-08-26T12:33:52.598Z,7.15
2022-08-26T12:36:28.936Z,10.98
2022-08-26T12:39:08.933Z,8.73
2022-08-26T12:41:47.126Z,9.10
2022-08-26T12:44:37.858Z,10.10
2022-08-26T12:47:11.756Z,7.80
2022-08-26T12:49:42.609Z,5.88
2022-08-26T12:52:30.123Z,8.52
2022-08-26T12:55:02.597Z,8.63
2022-08-26T12:57:35.270Z,9.77
2022-08-26T13:00:40.820Z,10.63
2022-08-26T13:03:43.955Z,12.88
2022-08-26T13:06:29.787Z,19.13
2022-08-26T13:09:00.717Z,28.88
2022-08-26T13:11:31.659Z,31.65
2022-08-26T13:14:01.945Z,38.10
2022-08-26T13:16:30.758Z,32.67
2022-08-26T13:19:10.218Z,33.17
2022-08-26T13:21:47.933Z,32.20
2022-08-26T13:24:22.313Z,25.90
2022-08-26T13:26:53.770Z,19.13
2022-08-26T13:29:25.871Z,15.88
2022-08-26T13:31:57.557Z,11.60
2022-08-26T13:34:32.247Z,11.93
2022-08-26T13:37:04.889Z,10.02
2022-08-26T13:42:14.427Z,11.48
2022-08-26T13:45:07.099Z,13.13
2022-08-26T13:47:43.520Z,11.35
2022-08-26T13:50:35.422Z,10.25
2022-08-26T13:53:29.707Z,10.70
2022-08-26T13:56:13.476Z,10.15
2022-08-26T13:58:46.455Z,11.38
2022-08-26T14:01:19.347Z,10.80
2022-08-26T14:03:56.295Z,10.93
2022-08-26T14:06:56.143Z,12.63
2022-08-26T14:09:40.843Z,10.27
2022-08-26T14:12:30.268Z,10.73
2022-08-26T14:18:42.481Z,10.70
2022-08-26T14:21:50.122Z,9.73
2022-08-26T14:28:12.843Z,10.27
2022-08-26T14:31:13.087Z,10.57
2022-08-26T14:34:01.628Z,9.73
2022-08-26T14:36:49.401Z,9.90
2022-08-26T14:39:40.685Z,7.68
2022-08-26T14:42:31.572Z,8.45
2022-08-26T14:45:32.366Z,12.63
2022-08-26T14:48:34.464Z,7.85
2022-08-26T14:51:43.644Z,7.60
2022-08-26T14:58:12.826Z,8.70
2022-08-26T15:01:21.242Z,9.20
2022-08-26T15:03:53.254Z,9.90
2022-08-26T15:06:27.710Z,10.57
2022-08-26T15:09:02.430Z,9.70
2022-08-26T15:11:35.210Z,12.00
2022-08-26T15:14:04.059Z,10.63
2022-08-26T15:16:33.459Z,11.38
2022-08-26T15:19:08.827Z,11.38
2022-08-26T15:21:40.774Z,13.27
2022-08-26T15:24:13.776Z,10.55
2022-08-26T15:26:49.675Z,10.77
2022-08-26T15:29:20.151Z,10.43
2022-08-26T15:31:52.381Z,12.70
2022-08-26T15:34:28.814Z,15.23
2022-08-26T15:37:06.380Z,14.10
2022-08-26T15:39:37.492Z,19.45
2022-08-26T15:42:10.133Z,17.55
2022-08-26T15:44:38.549Z,21.42
2022-08-26T15:47:07.274Z,21.67
2022-08-26T15:49:36.724Z,23.05
2022-08-26T15:52:05.579Z,25.77
2022-08-26T15:54:34.562Z,20.73
2022-08-26T15:57:05.344Z,23.52
2022-08-26T15:59:35.887Z,24.50
2022-08-26T16:02:05.428Z,23.60
2022-08-26T16:04:33.849Z,24.92
2022-08-26T16:07:02.299Z,22.05
2022-08-26T16:09:33.902Z,25.25
2022-08-26T16:12:02.254Z,25.52
2022-08-26T16:14:30.648Z,26.23
2022-08-26T16:17:00.273Z,31.73
2022-08-26T16:19:28.659Z,28.45
2022-08-26T16:21:56.920Z,29.90
2022-08-26T16:24:30.519Z,30.17
2022-08-26T16:26:59.069Z,33.70
2022-08-26T16:29:27.875Z,36.13
2022-08-26T16:32:03.572Z,38.63
2022-08-26T16:34:31.778Z,40.72
2022-08-26T16:37:00.754Z,60.45
2022-08-26T16:39:29.093Z,53.42
2022-08-26T16:42:00.008Z,65.95
2022-08-26T16:44:30.854Z,70.75
2022-08-26T16:47:00.515Z,74.35
2022-08-26T16:49:29.029Z,83.20
2022-08-26T16:51:57.381Z,86.30
2022-08-26T16:54:25.673Z,86.30
2022-08-26T16:56:54.001Z,62.80
2022-08-26T16:59:22.261Z,61.85
2022-08-26T17:01:50.704Z,45.25
2022-08-26T17:04:21.986Z,39.53
2022-08-26T17:06:53.065Z,35.55
2022-08-26T17:09:21.465Z,31.10
2022-08-26T17:11:50.459Z,22.45
2022-08-26T17:14:18.770Z,18.33
2022-08-26T17:16:51.235Z,15.30
2022-08-26T17:19:24.128Z,17.52
2022-08-26T17:21:52.928Z,15.88
2022-08-26T17:24:21.228Z,17.48
2022-08-26T17:26:50.747Z,17.92
2022-08-26T17:31:54.980Z,13.35
2022-08-26T17:34:24.816Z,11.27
2022-08-26T17:36:53.678Z,15.43
2022-08-26T17:39:21.842Z,18.52
2022-08-26T17:41:50.227Z,13.70
2022-08-26T17:44:18.516Z,12.95
2022-08-26T17:46:53.015Z,10.60
2022-08-26T17:51:53.770Z,14.90
2022-08-26T17:54:22.117Z,14.68
2022-08-26T17:56:50.430Z,18.95
2022-08-26T17:59:18.850Z,15.70
2022-08-26T18:01:47.197Z,15.20
2022-08-26T18:04:16.144Z,30.23
2022-08-26T18:06:46.008Z,23.20
2022-08-26T18:09:14.320Z,32.28
2022-08-26T18:11:45.630Z,27.98
2022-08-26T18:14:13.950Z,31.33
2022-08-26T18:16:44.951Z,39.28
2022-08-26T18:19:13.341Z,38.30
2022-08-26T18:21:41.669Z,58.47
2022-08-26T18:24:14.082Z,39.67
2022-08-26T18:26:49.021Z,50.38
2022-08-26T18:31:46.610Z,42.67
2022-08-26T18:34:17.326Z,49.28
2022-08-26T18:36:45.742Z,47.40
2022-08-26T18:39:16.322Z,42.28
2022-08-26T18:41:46.773Z,35.63
2022-08-26T18:44:16.713Z,31.60
2022-08-26T18:46:46.557Z,27.42
2022-08-26T18:49:16.886Z,26.65
2022-08-26T18:51:46.761Z,29.20
2022-08-26T18:56:55.747Z,23.20
2022-08-26T18:59:26.781Z,30.17
2022-08-26T19:02:01.918Z,23.23
2022-08-26T19:04:33.330Z,24.95
2022-08-26T19:07:01.660Z,19.00
2022-08-26T19:09:31.810Z,15.43
2022-08-26T19:12:00.988Z,23.77
2022-08-26T19:14:30.227Z,22.30
2022-08-26T19:16:59.036Z,19.60
2022-08-26T19:19:31.897Z,15.82
2022-08-26T19:22:00.654Z,16.83
2022-08-26T19:24:33.568Z,18.27
2022-08-26T19:27:05.795Z,18.35
2022-08-26T19:29:38.132Z,20.35
2022-08-26T19:32:07.308Z,17.65
2022-08-26T19:34:36.450Z,18.98
2022-08-26T19:37:07.465Z,15.88
2022-08-26T19:39:37.609Z,18.13
2022-08-26T19:42:08.944Z,20.17
2022-08-26T19:44:54.620Z,16.60
2022-08-26T19:47:23.042Z,16.20
2022-08-26T19:49:54.469Z,16.75
2022-08-26T19:52:30.170Z,21.20
2022-08-26T19:55:03.539Z,20.88
2022-08-26T19:57:32.058Z,18.30
2022-08-26T20:00:07.029Z,21.77
2022-08-26T20:02:35.847Z,15.68
2022-08-26T20:05:05.173Z,20.23
2022-08-26T20:07:36.232Z,18.40
2022-08-26T20:10:07.383Z,13.80
2022-08-26T20:12:36.086Z,16.80
2022-08-26T20:15:06.199Z,19.80
2022-08-26T20:17:40.219Z,20.33
2022-08-26T20:20:33.234Z,19.58
2022-08-26T20:23:05.724Z,20.48
2022-08-26T20:25:38.637Z,21.88
2022-08-26T20:28:07.075Z,22.42
2022-08-26T20:30:35.441Z,20.95
2022-08-26T20:33:06.914Z,20.92
2022-08-26T20:35:35.276Z,22.92
2022-08-26T20:38:03.620Z,18.35
2022-08-26T20:40:32.609Z,22.35
2022-08-26T20:43:02.422Z,17.67
2022-08-26T20:45:30.783Z,27.55
2022-08-26T20:47:59.235Z,17.88
2022-08-26T20:50:32.830Z,20.58
2022-08-26T20:53:01.558Z,17.05
2022-08-26T20:55:29.883Z,26.50
2022-08-26T20:57:58.476Z,19.35
2022-08-26T21:00:29.002Z,21.20
2022-08-26T21:02:57.580Z,23.35
2022-08-26T21:05:28.952Z,15.85
2022-08-26T21:07:58.255Z,19.50
2022-08-26T21:10:29.245Z,20.27
2022-08-26T21:12:58.324Z,17.30
2022-08-26T21:15:31.970Z,19.27
2022-08-26T21:18:00.596Z,19.92
2022-08-26T21:20:32.706Z,22.33
2022-08-26T21:23:01.014Z,24.30
2022-08-26T21:25:29.407Z,34.67
2022-08-26T21:27:58.699Z,26.63
2022-08-26T21:30:28.612Z,28.80
2022-08-26T21:32:59.539Z,23.17
2022-08-26T21:35:27.872Z,18.35
2022-08-26T21:37:59.327Z,14.63
2022-08-26T21:40:31.615Z,15.30
2022-08-26T21:43:00.047Z,14.95
2022-08-26T21:45:29.910Z,15.57
2022-08-26T21:48:01.293Z,12.27
2022-08-26T21:50:30.744Z,15.35
2022-08-26T21:53:02.019Z,12.60
2022-08-26T21:55:30.433Z,20.42
2022-08-26T21:57:58.749Z,11.73
2022-08-26T22:00:31.487Z,13.90
2022-08-26T22:03:00.818Z,14.15
2022-08-26T22:05:32.648Z,17.25
2022-08-26T22:08:01.023Z,18.33
2022-08-26T22:10:29.468Z,16.05
2022-08-26T22:12:57.768Z,21.23
2022-08-26T22:15:27.666Z,29.00
2022-08-26T22:17:57.493Z,36.47
2022-08-26T22:20:28.688Z,34.17
2022-08-26T22:23:01.102Z,37.45
2022-08-26T22:25:29.616Z,34.15
2022-08-26T22:27:58.144Z,41.50
2022-08-26T22:30:29.207Z,37.45
2022-08-26T22:33:01.753Z,35.13
2022-08-26T22:35:30.119Z,29.13
2022-08-26T22:37:58.833Z,29.42
2022-08-26T22:40:30.000Z,27.35
2022-08-26T22:42:58.704Z,30.45
2022-08-26T22:45:28.614Z,29.13
2022-08-26T22:48:01.800Z,24.65
2022-08-26T22:50:32.769Z,25.23
2022-08-26T22:53:01.145Z,24.08
2022-08-26T22:55:32.090Z,18.77
2022-08-26T22:58:00.681Z,19.80
2022-08-26T23:00:31.992Z,17.02
2022-08-26T23:03:03.426Z,18.55
2022-08-26T23:05:32.235Z,17.23
2022-08-26T23:08:00.889Z,17.92
2022-08-26T23:10:30.550Z,19.42
2022-08-26T23:12:58.986Z,17.70
2022-08-26T23:15:30.459Z,14.73
2022-08-26T23:17:59.120Z,14.98
2022-08-26T23:20:29.841Z,13.88
2022-08-26T23:22:58.740Z,16.10
2022-08-26T23:25:28.130Z,14.52
2022-08-26T23:27:56.862Z,13.25
2022-08-26T23:30:27.626Z,14.20
2022-08-26T23:32:58.818Z,13.43
2022-08-26T23:35:30.497Z,10.07
2022-08-26T23:37:59.158Z,14.30
2022-08-26T23:40:32.261Z,12.55
2022-08-26T23:43:03.376Z,11.18
2022-08-26T23:45:32.759Z,12.93
2022-08-26T23:48:04.293Z,10.38
2022-08-26T23:50:51.777Z,12.32
2022-08-26T23:53:26.647Z,9.65
2022-08-26T23:58:25.677Z,11.20
